Terminal Aerodrome Forecast
Issued by NWS

Home | Current Version | Previous Version | Text Only | Print | Product List | Glossary On
Versions: 1 2 3 4 5 6 7 8 9 10 11 12
000
FTUS44 KTSA 290500
TAFXNA
TAF
KXNA 290520Z 2906/3006 13010KT P6SM SKC
     FM291400 18012KT P6SM BKN250
     FM291800 21007KT P6SM BKN120
     FM292200 27007KT P6SM BKN100
     FM300100 33007KT P6SM SCT100=

USA.gov is the U.S. government's official web portal to all federal, state and local government web resources and services.